createdAt,value
2022-08-07T00:10:29.578Z,1022.22
2022-08-07T00:38:43.048Z,1022.18
2022-08-07T01:07:33.996Z,1022.06
2022-08-07T01:36:17.563Z,1021.88
2022-08-07T02:05:43.530Z,1021.87
2022-08-07T02:34:17.178Z,1021.61
2022-08-07T03:02:35.713Z,1021.63
2022-08-07T03:31:42.164Z,1021.72
2022-08-07T04:00:04.630Z,1021.82
2022-08-07T04:28:28.893Z,1021.98
2022-08-07T04:58:09.215Z,1022.21
2022-08-07T05:26:23.839Z,1022.38
2022-08-07T05:54:53.675Z,1022.59
2022-08-07T06:23:25.319Z,1022.75
2022-08-07T06:51:34.474Z,1022.69
2022-08-07T07:20:12.440Z,1022.53
2022-08-07T07:49:00.097Z,1022.34
2022-08-07T08:17:56.803Z,1022.15
2022-08-07T08:46:01.463Z,1021.99
2022-08-07T09:14:19.330Z,1021.75
2022-08-07T09:42:59.044Z,1021.6
2022-08-07T10:12:00.689Z,1021.15
2022-08-07T10:40:12.916Z,1020.74
2022-08-07T11:08:32.983Z,1020.46
2022-08-07T11:37:12.703Z,1020.06
2022-08-07T12:05:50.223Z,1019.89
2022-08-07T12:34:14.776Z,1019.69
2022-08-07T13:02:50.924Z,1019.54
2022-08-07T13:31:18.919Z,1019.36
2022-08-07T14:00:28.078Z,1019.12
2022-08-07T14:29:05.829Z,1018.87
2022-08-07T14:57:21.060Z,1018.67
2022-08-07T15:25:49.154Z,1018.61
2022-08-07T15:54:28.187Z,1018.4
2022-08-07T16:23:54.378Z,1018.18
2022-08-07T16:52:49.062Z,1018.29
2022-08-07T17:20:29.844Z,1018.44
2022-08-07T17:48:44.769Z,1018.5
2022-08-07T18:18:36.739Z,1018.77
2022-08-07T18:46:22.183Z,1019.16
2022-08-07T19:14:27.184Z,1019.52
2022-08-07T19:43:09.026Z,1019.85
2022-08-07T20:12:01.251Z,1019.92
2022-08-07T20:40:34.407Z,1019.98
2022-08-07T21:08:47.255Z,1020
2022-08-07T21:37:22.850Z,1020.16
2022-08-07T22:05:50.143Z,1020.27
2022-08-07T22:34:54.133Z,1020.26
2022-08-07T23:03:28.905Z,1020.38
2022-08-07T23:32:49.969Z,1020.42
